sensor_id;sensor_type;location;lat;lon;timestamp;pressure;altitude;pressure_sealevel;temperature;humidity
12213;BME280;6169;44.158;22.788;2023-04-25T00:00:44;100144.84;;;18.10;59.45
12213;BME280;6169;44.158;22.788;2023-04-25T00:05:46;100138.41;;;18.01;59.21
12213;BME280;6169;44.158;22.788;2023-04-25T00:10:50;100144.09;;;18.04;59.82
12213;BME280;6169;44.158;22.788;2023-04-25T00:15:53;100125.84;;;17.76;59.82
12213;BME280;6169;44.158;22.788;2023-04-25T00:20:55;100121.22;;;17.90;59.79
12213;BME280;6169;44.158;22.788;2023-04-25T00:25:59;100117.94;;;17.88;60.00
12213;BME280;6169;44.158;22.788;2023-04-25T00:31:01;100126.94;;;17.75;60.01
12213;BME280;6169;44.158;22.788;2023-04-25T00:36:03;100113.06;;;17.85;60.03
12213;BME280;6169;44.158;22.788;2023-04-25T00:41:07;100116.09;;;18.02;58.55
12213;BME280;6169;44.158;22.788;2023-04-25T00:46:09;100104.09;;;17.60;60.57
12213;BME280;6169;44.158;22.788;2023-04-25T00:51:13;100097.78;;;17.60;60.15
12213;BME280;6169;44.158;22.788;2023-04-25T00:56:19;100102.53;;;17.54;60.44
12213;BME280;6169;44.158;22.788;2023-04-25T01:01:22;100097.19;;;17.63;59.97
12213;BME280;6169;44.158;22.788;2023-04-25T01:06:25;100107.28;;;17.49;60.63
12213;BME280;6169;44.158;22.788;2023-04-25T01:11:29;100097.03;;;17.54;60.17
12213;BME280;6169;44.158;22.788;2023-04-25T01:16:31;100093.69;;;17.57;60.01
12213;BME280;6169;44.158;22.788;2023-04-25T01:21:35;100094.22;;;17.59;59.96
12213;BME280;6169;44.158;22.788;2023-04-25T01:26:38;100089.16;;;17.67;59.85
12213;BME280;6169;44.158;22.788;2023-04-25T01:31:41;100084.00;;;17.79;58.92
12213;BME280;6169;44.158;22.788;2023-04-25T01:36:47;100080.66;;;17.82;58.94
12213;BME280;6169;44.158;22.788;2023-04-25T01:41:50;100090.06;;;17.43;60.32
12213;BME280;6169;44.158;22.788;2023-04-25T01:46:53;100086.31;;;17.72;58.61
12213;BME280;6169;44.158;22.788;2023-04-25T01:51:56;100075.69;;;17.84;58.80
12213;BME280;6169;44.158;22.788;2023-04-25T01:56:59;100070.63;;;17.40;58.59
12213;BME280;6169;44.158;22.788;2023-04-25T02:02:02;100075.84;;;17.74;58.49
12213;BME280;6169;44.158;22.788;2023-04-25T02:07:06;100070.81;;;17.05;61.10
12213;BME280;6169;44.158;22.788;2023-04-25T02:12:09;100073.69;;;16.95;61.81
12213;BME280;6169;44.158;22.788;2023-04-25T02:17:11;100048.28;;;17.27;60.62
12213;BME280;6169;44.158;22.788;2023-04-25T02:22:15;100045.81;;;17.26;60.72
12213;BME280;6169;44.158;22.788;2023-04-25T02:27:18;100033.94;;;17.11;60.61
12213;BME280;6169;44.158;22.788;2023-04-25T02:32:20;100043.44;;;17.00;61.03
12213;BME280;6169;44.158;22.788;2023-04-25T02:37:24;100049.16;;;17.42;60.22
12213;BME280;6169;44.158;22.788;2023-04-25T02:42:26;100041.84;;;17.70;58.50
12213;BME280;6169;44.158;22.788;2023-04-25T02:47:28;100044.69;;;17.65;58.47
12213;BME280;6169;44.158;22.788;2023-04-25T02:52:32;100043.97;;;17.40;58.71
12213;BME280;6169;44.158;22.788;2023-04-25T02:57:34;100046.22;;;16.95;60.85
12213;BME280;6169;44.158;22.788;2023-04-25T03:02:36;100034.06;;;17.01;60.76
12213;BME280;6169;44.158;22.788;2023-04-25T03:07:40;100038.53;;;17.35;60.36
12213;BME280;6169;44.158;22.788;2023-04-25T03:17:46;100029.63;;;17.43;58.91
12213;BME280;6169;44.158;22.788;2023-04-25T03:22:49;100035.72;;;17.40;59.88
12213;BME280;6169;44.158;22.788;2023-04-25T03:27:51;100039.53;;;17.25;59.77
12213;BME280;6169;44.158;22.788;2023-04-25T03:32:53;100037.38;;;17.22;60.43
12213;BME280;6169;44.158;22.788;2023-04-25T03:37:57;100035.50;;;17.36;59.51
12213;BME280;6169;44.158;22.788;2023-04-25T03:42:59;100032.84;;;17.31;60.17
12213;BME280;6169;44.158;22.788;2023-04-25T03:48:01;100037.50;;;17.50;59.77
12213;BME280;6169;44.158;22.788;2023-04-25T03:53:05;100039.94;;;17.13;60.00
12213;BME280;6169;44.158;22.788;2023-04-25T03:58:07;100043.44;;;17.00;61.05
12213;BME280;6169;44.158;22.788;2023-04-25T04:03:09;100042.31;;;17.01;60.88
12213;BME280;6169;44.158;22.788;2023-04-25T04:08:13;100042.16;;;17.49;59.32
12213;BME280;6169;44.158;22.788;2023-04-25T04:13:15;100034.31;;;17.43;59.40
12213;BME280;6169;44.158;22.788;2023-04-25T04:18:18;100038.69;;;17.76;58.10
12213;BME280;6169;44.158;22.788;2023-04-25T04:23:21;100040.09;;;17.74;58.37
12213;BME280;6169;44.158;22.788;2023-04-25T04:28:23;100041.31;;;17.68;58.66
12213;BME280;6169;44.158;22.788;2023-04-25T04:33:25;100045.88;;;17.58;58.56
12213;BME280;6169;44.158;22.788;2023-04-25T04:38:30;100032.19;;;17.86;57.81
12213;BME280;6169;44.158;22.788;2023-04-25T04:43:32;100037.59;;;17.91;57.83
12213;BME280;6169;44.158;22.788;2023-04-25T04:48:35;100028.88;;;17.89;58.17
12213;BME280;6169;44.158;22.788;2023-04-25T04:53:39;100031.06;;;18.20;56.96
12213;BME280;6169;44.158;22.788;2023-04-25T04:58:41;100037.78;;;18.27;56.25
12213;BME280;6169;44.158;22.788;2023-04-25T05:03:43;100046.53;;;18.16;56.71
12213;BME280;6169;44.158;22.788;2023-04-25T05:08:47;100044.81;;;18.06;57.69
12213;BME280;6169;44.158;22.788;2023-04-25T05:13:49;100039.22;;;18.53;55.99
12213;BME280;6169;44.158;22.788;2023-04-25T05:18:51;100041.06;;;18.57;55.72
12213;BME280;6169;44.158;22.788;2023-04-25T05:23:55;100042.69;;;18.44;55.68
12213;BME280;6169;44.158;22.788;2023-04-25T05:28:57;100038.00;;;18.59;55.67
12213;BME280;6169;44.158;22.788;2023-04-25T05:33:59;100040.03;;;18.53;54.98
12213;BME280;6169;44.158;22.788;2023-04-25T05:39:03;100042.78;;;18.25;56.22
12213;BME280;6169;44.158;22.788;2023-04-25T05:44:06;100052.03;;;18.16;55.87
12213;BME280;6169;44.158;22.788;2023-04-25T05:49:08;100053.25;;;17.44;57.44
12213;BME280;6169;44.158;22.788;2023-04-25T05:54:12;100047.91;;;17.34;58.33
12213;BME280;6169;44.158;22.788;2023-04-25T05:59:14;100045.00;;;17.77;57.12
12213;BME280;6169;44.158;22.788;2023-04-25T06:04:16;100052.47;;;18.50;55.89
12213;BME280;6169;44.158;22.788;2023-04-25T06:09:20;100049.50;;;17.73;57.49
12213;BME280;6169;44.158;22.788;2023-04-25T06:14:22;100049.72;;;18.23;56.99
12213;BME280;6169;44.158;22.788;2023-04-25T06:19:24;100048.09;;;18.63;56.95
12213;BME280;6169;44.158;22.788;2023-04-25T06:24:28;100042.44;;;17.99;57.34
12213;BME280;6169;44.158;22.788;2023-04-25T06:29:30;100052.63;;;17.99;56.55
12213;BME280;6169;44.158;22.788;2023-04-25T06:34:32;100062.75;;;18.17;56.26
12213;BME280;6169;44.158;22.788;2023-04-25T06:39:36;100069.41;;;17.46;58.26
12213;BME280;6169;44.158;22.788;2023-04-25T06:44:38;100067.94;;;18.19;56.11
12213;BME280;6169;44.158;22.788;2023-04-25T06:49:40;100069.50;;;17.92;57.02
12213;BME280;6169;44.158;22.788;2023-04-25T06:54:43;100073.41;;;18.05;57.03
12213;BME280;6169;44.158;22.788;2023-04-25T06:59:46;100072.41;;;17.82;55.29
12213;BME280;6169;44.158;22.788;2023-04-25T07:04:48;100077.22;;;18.09;54.89
12213;BME280;6169;44.158;22.788;2023-04-25T07:09:51;100069.34;;;17.70;55.52
12213;BME280;6169;44.158;22.788;2023-04-25T07:14:54;100082.75;;;18.23;54.75
12213;BME280;6169;44.158;22.788;2023-04-25T07:19:56;100083.19;;;18.11;54.76
12213;BME280;6169;44.158;22.788;2023-04-25T07:24:59;100082.75;;;18.50;54.40
12213;BME280;6169;44.158;22.788;2023-04-25T07:30:01;100078.84;;;17.91;55.31
12213;BME280;6169;44.158;22.788;2023-04-25T07:35:05;100079.19;;;18.64;53.30
12213;BME280;6169;44.158;22.788;2023-04-25T07:40:10;100077.75;;;18.53;52.52
12213;BME280;6169;44.158;22.788;2023-04-25T07:45:12;99967.28;;;18.45;51.35
12213;BME280;6169;44.158;22.788;2023-04-25T07:50:16;100077.34;;;19.37;50.34
12213;BME280;6169;44.158;22.788;2023-04-25T07:55:19;100077.16;;;19.47;51.03
12213;BME280;6169;44.158;22.788;2023-04-25T08:00:21;100072.56;;;19.88;49.90
12213;BME280;6169;44.158;22.788;2023-04-25T08:05:23;100074.44;;;20.01;46.32
12213;BME280;6169;44.158;22.788;2023-04-25T08:10:27;100085.19;;;20.74;46.11
12213;BME280;6169;44.158;22.788;2023-04-25T08:15:29;100077.50;;;19.99;46.32
12213;BME280;6169;44.158;22.788;2023-04-25T08:20:31;100077.03;;;20.68;44.62
12213;BME280;6169;44.158;22.788;2023-04-25T08:25:35;100069.88;;;20.67;43.48
12213;BME280;6169;44.158;22.788;2023-04-25T08:30:37;100073.06;;;21.01;42.88
12213;BME280;6169;44.158;22.788;2023-04-25T08:35:39;100068.41;;;20.70;44.78
12213;BME280;6169;44.158;22.788;2023-04-25T08:40:44;100069.53;;;21.52;43.80
12213;BME280;6169;44.158;22.788;2023-04-25T08:45:52;100070.03;;;20.62;41.92
12213;BME280;6169;44.158;22.788;2023-04-25T08:50:55;100069.13;;;20.13;45.08
12213;BME280;6169;44.158;22.788;2023-04-25T08:56:01;100068.44;;;20.79;42.80
12213;BME280;6169;44.158;22.788;2023-04-25T09:01:03;100067.31;;;20.71;44.38
12213;BME280;6169;44.158;22.788;2023-04-25T09:06:05;100061.09;;;20.57;44.19
12213;BME280;6169;44.158;22.788;2023-04-25T09:11:09;100066.44;;;21.10;44.60
12213;BME280;6169;44.158;22.788;2023-04-25T09:16:11;100051.78;;;20.13;45.00
12213;BME280;6169;44.158;22.788;2023-04-25T09:21:15;100054.53;;;20.13;44.49
12213;BME280;6169;44.158;22.788;2023-04-25T09:26:20;100057.50;;;21.13;43.19
12213;BME280;6169;44.158;22.788;2023-04-25T09:31:22;100041.09;;;20.51;43.47
12213;BME280;6169;44.158;22.788;2023-04-25T09:36:26;100045.16;;;19.91;47.57
12213;BME280;6169;44.158;22.788;2023-04-25T09:41:30;100061.66;;;19.24;48.34
12213;BME280;6169;44.158;22.788;2023-04-25T09:46:33;100085.22;;;19.44;50.11
12213;BME280;6169;44.158;22.788;2023-04-25T09:51:37;100091.03;;;18.92;52.31
12213;BME280;6169;44.158;22.788;2023-04-25T09:56:41;100095.69;;;18.36;54.13
12213;BME280;6169;44.158;22.788;2023-04-25T10:01:43;100110.06;;;18.61;55.79
12213;BME280;6169;44.158;22.788;2023-04-25T10:06:45;100111.19;;;18.46;57.44
12213;BME280;6169;44.158;22.788;2023-04-25T10:11:52;100116.06;;;19.18;56.02
12213;BME280;6169;44.158;22.788;2023-04-25T10:16:55;100117.28;;;19.26;55.25
12213;BME280;6169;44.158;22.788;2023-04-25T10:22:03;100105.53;;;19.48;54.99
12213;BME280;6169;44.158;22.788;2023-04-25T10:27:08;100109.28;;;19.74;55.20
12213;BME280;6169;44.158;22.788;2023-04-25T10:32:10;100091.00;;;18.50;55.78
12213;BME280;6169;44.158;22.788;2023-04-25T10:37:13;100109.97;;;18.52;51.63
12213;BME280;6169;44.158;22.788;2023-04-25T10:42:17;100110.78;;;17.54;50.78
12213;BME280;6169;44.158;22.788;2023-04-25T10:47:34;100117.22;;;18.01;50.09
12213;BME280;6169;44.158;22.788;2023-04-25T10:52:39;100119.06;;;17.87;50.74
12213;BME280;6169;44.158;22.788;2023-04-25T10:57:43;100118.66;;;18.13;50.58
12213;BME280;6169;44.158;22.788;2023-04-25T11:02:51;100119.75;;;18.58;52.20
12213;BME280;6169;44.158;22.788;2023-04-25T11:07:54;100128.94;;;18.67;50.61
12213;BME280;6169;44.158;22.788;2023-04-25T11:12:59;100134.66;;;17.92;51.73
12213;BME280;6169;44.158;22.788;2023-04-25T11:18:01;100139.47;;;17.67;50.18
12213;BME280;6169;44.158;22.788;2023-04-25T11:23:04;100125.34;;;18.39;46.73
12213;BME280;6169;44.158;22.788;2023-04-25T11:28:08;100131.69;;;17.88;47.84
12213;BME280;6169;44.158;22.788;2023-04-25T11:33:10;100125.63;;;17.72;47.29
12213;BME280;6169;44.158;22.788;2023-04-25T11:38:12;100127.09;;;19.04;47.22
12213;BME280;6169;44.158;22.788;2023-04-25T11:43:17;100143.72;;;18.11;47.78
12213;BME280;6169;44.158;22.788;2023-04-25T11:48:20;100146.94;;;17.99;47.20
12213;BME280;6169;44.158;22.788;2023-04-25T11:53:22;100156.28;;;16.75;48.61
12213;BME280;6169;44.158;22.788;2023-04-25T11:58:27;100151.41;;;17.14;48.01
12213;BME280;6169;44.158;22.788;2023-04-25T12:03:30;100178.00;;;17.43;45.93
12213;BME280;6169;44.158;22.788;2023-04-25T12:08:33;100155.69;;;17.26;46.49
12213;BME280;6169;44.158;22.788;2023-04-25T12:13:37;100165.50;;;17.32;45.72
12213;BME280;6169;44.158;22.788;2023-04-25T12:18:39;100159.66;;;17.57;46.23
12213;BME280;6169;44.158;22.788;2023-04-25T12:23:41;100153.91;;;17.35;44.36
12213;BME280;6169;44.158;22.788;2023-04-25T12:28:45;100156.75;;;17.68;45.00
12213;BME280;6169;44.158;22.788;2023-04-25T12:33:47;100142.56;;;17.60;43.64
12213;BME280;6169;44.158;22.788;2023-04-25T12:38:49;100139.81;;;19.42;41.44
12213;BME280;6169;44.158;22.788;2023-04-25T12:43:53;100137.19;;;18.40;42.18
12213;BME280;6169;44.158;22.788;2023-04-25T12:48:55;100140.44;;;18.56;42.24
12213;BME280;6169;44.158;22.788;2023-04-25T12:53:58;100132.41;;;19.01;41.32
12213;BME280;6169;44.158;22.788;2023-04-25T12:59:01;100137.59;;;17.63;41.81
12213;BME280;6169;44.158;22.788;2023-04-25T13:04:03;100115.91;;;18.87;41.14
12213;BME280;6169;44.158;22.788;2023-04-25T13:09:06;100106.53;;;19.74;39.78
12213;BME280;6169;44.158;22.788;2023-04-25T13:14:10;100102.22;;;18.96;39.68
12213;BME280;6169;44.158;22.788;2023-04-25T13:19:12;100087.97;;;19.30;40.13
12213;BME280;6169;44.158;22.788;2023-04-25T13:24:14;100086.41;;;19.74;38.98
12213;BME280;6169;44.158;22.788;2023-04-25T13:29:18;100094.47;;;19.11;40.23
12213;BME280;6169;44.158;22.788;2023-04-25T13:34:20;100085.81;;;18.63;40.05
12213;BME280;6169;44.158;22.788;2023-04-25T13:39:22;100078.84;;;19.57;39.82
12213;BME280;6169;44.158;22.788;2023-04-25T13:44:26;100062.13;;;19.39;40.67
12213;BME280;6169;44.158;22.788;2023-04-25T13:49:28;100061.84;;;18.49;39.37
12213;BME280;6169;44.158;22.788;2023-04-25T13:54:30;100047.09;;;18.45;39.85
12213;BME280;6169;44.158;22.788;2023-04-25T13:59:34;100057.84;;;19.11;38.25
12213;BME280;6169;44.158;22.788;2023-04-25T14:04:36;100064.16;;;19.11;38.90
12213;BME280;6169;44.158;22.788;2023-04-25T14:09:38;100059.63;;;18.52;40.29
12213;BME280;6169;44.158;22.788;2023-04-25T14:14:42;100052.06;;;18.43;39.32
12213;BME280;6169;44.158;22.788;2023-04-25T14:19:44;100058.59;;;18.75;39.17
12213;BME280;6169;44.158;22.788;2023-04-25T14:24:48;100062.03;;;19.08;38.57
12213;BME280;6169;44.158;22.788;2023-04-25T14:29:52;100052.81;;;19.13;38.50
12213;BME280;6169;44.158;22.788;2023-04-25T14:34:54;100036.88;;;19.24;37.51
12213;BME280;6169;44.158;22.788;2023-04-25T14:39:56;100051.94;;;19.85;37.07
12213;BME280;6169;44.158;22.788;2023-04-25T14:44:59;100046.91;;;19.56;37.63
12213;BME280;6169;44.158;22.788;2023-04-25T14:50:02;100055.31;;;19.37;37.83
12213;BME280;6169;44.158;22.788;2023-04-25T14:55:05;100051.47;;;18.88;37.79
12213;BME280;6169;44.158;22.788;2023-04-25T15:00:10;100026.72;;;19.10;36.44
12213;BME280;6169;44.158;22.788;2023-04-25T15:05:16;100029.13;;;19.26;37.71
12213;BME280;6169;44.158;22.788;2023-04-25T15:10:18;100039.53;;;19.74;37.28
12213;BME280;6169;44.158;22.788;2023-04-25T15:15:22;100040.19;;;19.12;37.67
12213;BME280;6169;44.158;22.788;2023-04-25T15:20:24;100024.78;;;19.11;37.68
12213;BME280;6169;44.158;22.788;2023-04-25T15:25:27;100018.81;;;19.76;38.08
12213;BME280;6169;44.158;22.788;2023-04-25T15:30:31;100016.75;;;19.01;37.68
12213;BME280;6169;44.158;22.788;2023-04-25T15:35:33;100014.38;;;19.44;37.22
12213;BME280;6169;44.158;22.788;2023-04-25T15:40:36;100025.16;;;18.40;38.38
12213;BME280;6169;44.158;22.788;2023-04-25T15:45:39;100020.06;;;18.75;39.17
12213;BME280;6169;44.158;22.788;2023-04-25T15:50:42;100019.56;;;18.32;39.21
12213;BME280;6169;44.158;22.788;2023-04-25T15:55:44;100014.03;;;18.59;39.49
12213;BME280;6169;44.158;22.788;2023-04-25T16:00:48;100010.69;;;18.48;37.74
12213;BME280;6169;44.158;22.788;2023-04-25T16:05:51;99846.06;;;17.59;38.29
12213;BME280;6169;44.158;22.788;2023-04-25T16:10:53;99998.16;;;19.06;38.01
12213;BME280;6169;44.158;22.788;2023-04-25T16:15:57;100007.72;;;18.31;39.39
12213;BME280;6169;44.158;22.788;2023-04-25T16:20:59;100007.50;;;18.69;39.18
12213;BME280;6169;44.158;22.788;2023-04-25T16:26:01;100005.13;;;17.93;39.58
12213;BME280;6169;44.158;22.788;2023-04-25T16:31:05;99998.38;;;17.86;39.95
12213;BME280;6169;44.158;22.788;2023-04-25T16:36:08;99997.78;;;17.89;39.68
12213;BME280;6169;44.158;22.788;2023-04-25T16:41:12;100000.91;;;18.01;40.47
12213;BME280;6169;44.158;22.788;2023-04-25T16:46:16;100002.41;;;17.28;41.19
12213;BME280;6169;44.158;22.788;2023-04-25T16:51:19;99999.78;;;18.02;38.97
12213;BME280;6169;44.158;22.788;2023-04-25T16:56:21;99987.31;;;17.44;40.82
12213;BME280;6169;44.158;22.788;2023-04-25T17:01:25;99998.22;;;17.11;41.97
12213;BME280;6169;44.158;22.788;2023-04-25T17:06:27;99996.44;;;17.02;42.58
12213;BME280;6169;44.158;22.788;2023-04-25T17:11:30;100005.53;;;17.54;41.23
12213;BME280;6169;44.158;22.788;2023-04-25T17:16:38;100006.47;;;17.11;41.61
12213;BME280;6169;44.158;22.788;2023-04-25T17:21:40;100010.25;;;16.97;42.54
12213;BME280;6169;44.158;22.788;2023-04-25T17:26:42;100008.41;;;16.92;42.50
12213;BME280;6169;44.158;22.788;2023-04-25T17:31:46;100014.09;;;16.77;42.82
12213;BME280;6169;44.158;22.788;2023-04-25T17:36:48;100020.75;;;16.70;43.32
12213;BME280;6169;44.158;22.788;2023-04-25T17:41:50;100020.16;;;16.74;43.41
12213;BME280;6169;44.158;22.788;2023-04-25T17:46:54;100021.66;;;16.18;44.27
12213;BME280;6169;44.158;22.788;2023-04-25T17:51:56;100030.97;;;16.46;42.68
12213;BME280;6169;44.158;22.788;2023-04-25T17:56:58;100034.25;;;16.19;43.62
12213;BME280;6169;44.158;22.788;2023-04-25T18:02:02;100040.91;;;16.37;43.17
12213;BME280;6169;44.158;22.788;2023-04-25T18:07:04;100045.31;;;16.09;42.87
12213;BME280;6169;44.158;22.788;2023-04-25T18:12:07;100048.63;;;16.35;42.89
12213;BME280;6169;44.158;22.788;2023-04-25T18:17:11;100058.75;;;15.81;43.85
12213;BME280;6169;44.158;22.788;2023-04-25T18:22:14;100059.97;;;15.94;43.95
12213;BME280;6169;44.158;22.788;2023-04-25T18:27:17;100065.44;;;15.99;44.24
12213;BME280;6169;44.158;22.788;2023-04-25T18:32:21;100063.19;;;15.72;45.42
12213;BME280;6169;44.158;22.788;2023-04-25T18:37:23;100067.41;;;15.93;45.00
12213;BME280;6169;44.158;22.788;2023-04-25T18:42:25;100068.81;;;15.56;45.71
12213;BME280;6169;44.158;22.788;2023-04-25T18:47:30;100066.38;;;15.05;46.15
12213;BME280;6169;44.158;22.788;2023-04-25T18:52:33;100060.91;;;15.45;45.84
12213;BME280;6169;44.158;22.788;2023-04-25T18:57:36;100069.63;;;15.52;45.28
12213;BME280;6169;44.158;22.788;2023-04-25T19:02:40;100072.00;;;15.24;45.50
12213;BME280;6169;44.158;22.788;2023-04-25T19:07:42;100067.66;;;15.63;44.64
12213;BME280;6169;44.158;22.788;2023-04-25T19:12:44;100081.91;;;15.94;44.56
12213;BME280;6169;44.158;22.788;2023-04-25T19:17:50;100088.66;;;16.07;43.78
12213;BME280;6169;44.158;22.788;2023-04-25T19:22:53;100088.88;;;15.81;44.83
12213;BME280;6169;44.158;22.788;2023-04-25T19:27:56;100087.53;;;14.84;46.85
12213;BME280;6169;44.158;22.788;2023-04-25T19:33:01;100083.31;;;14.12;49.33
12213;BME280;6169;44.158;22.788;2023-04-25T19:38:04;100077.34;;;14.10;49.59
12213;BME280;6169;44.158;22.788;2023-04-25T19:43:06;100082.13;;;14.74;47.58
12213;BME280;6169;44.158;22.788;2023-04-25T19:48:10;100080.50;;;14.58;48.08
12213;BME280;6169;44.158;22.788;2023-04-25T19:53:14;100073.75;;;14.35;48.83
12213;BME280;6169;44.158;22.788;2023-04-25T19:58:16;100071.78;;;14.45;48.95
12213;BME280;6169;44.158;22.788;2023-04-25T20:03:20;100074.56;;;14.25;50.41
12213;BME280;6169;44.158;22.788;2023-04-25T20:08:24;100053.16;;;14.53;49.44
12213;BME280;6169;44.158;22.788;2023-04-25T20:13:26;100062.75;;;14.45;49.99
12213;BME280;6169;44.158;22.788;2023-04-25T20:18:30;100073.19;;;14.22;51.02
12213;BME280;6169;44.158;22.788;2023-04-25T20:23:32;100070.72;;;14.31;50.52
12213;BME280;6169;44.158;22.788;2023-04-25T20:28:35;100071.66;;;14.86;49.19
12213;BME280;6169;44.158;22.788;2023-04-25T20:33:39;100065.72;;;14.64;49.43
12213;BME280;6169;44.158;22.788;2023-04-25T20:38:43;100068.28;;;14.30;50.26
12213;BME280;6169;44.158;22.788;2023-04-25T20:43:45;100081.41;;;14.22;50.02
12213;BME280;6169;44.158;22.788;2023-04-25T20:48:50;100074.59;;;14.04;49.97
12213;BME280;6169;44.158;22.788;2023-04-25T20:53:53;100071.75;;;14.56;48.78
12213;BME280;6169;44.158;22.788;2023-04-25T20:58:55;100060.69;;;13.96;50.85
12213;BME280;6169;44.158;22.788;2023-04-25T21:03:59;100065.53;;;14.35;49.19
12213;BME280;6169;44.158;22.788;2023-04-25T21:09:01;100063.63;;;14.20;50.03
12213;BME280;6169;44.158;22.788;2023-04-25T21:14:04;100068.59;;;13.97;50.52
12213;BME280;6169;44.158;22.788;2023-04-25T21:19:08;100076.22;;;14.16;50.49
12213;BME280;6169;44.158;22.788;2023-04-25T21:24:12;100063.38;;;14.11;50.51
12213;BME280;6169;44.158;22.788;2023-04-25T21:29:14;100060.97;;;13.74;50.31
12213;BME280;6169;44.158;22.788;2023-04-25T21:34:18;100048.38;;;13.57;51.06
12213;BME280;6169;44.158;22.788;2023-04-25T21:39:20;100054.13;;;14.02;50.52
12213;BME280;6169;44.158;22.788;2023-04-25T21:44:23;100053.25;;;14.32;49.13
12213;BME280;6169;44.158;22.788;2023-04-25T21:49:26;100054.06;;;14.22;49.27
12213;BME280;6169;44.158;22.788;2023-04-25T21:54:29;100053.03;;;13.77;50.86
12213;BME280;6169;44.158;22.788;2023-04-25T21:59:31;100045.09;;;13.66;50.98
12213;BME280;6169;44.158;22.788;2023-04-25T22:04:36;100040.47;;;13.87;50.62
12213;BME280;6169;44.158;22.788;2023-04-25T22:09:39;100042.63;;;13.69;51.25
12213;BME280;6169;44.158;22.788;2023-04-25T22:14:41;100048.38;;;13.78;49.88
12213;BME280;6169;44.158;22.788;2023-04-25T22:19:45;100053.56;;;13.95;49.59
12213;BME280;6169;44.158;22.788;2023-04-25T22:24:47;100053.31;;;13.91;50.38
12213;BME280;6169;44.158;22.788;2023-04-25T22:29:50;100055.34;;;14.66;47.55
12213;BME280;6169;44.158;22.788;2023-04-25T22:34:54;100051.38;;;14.92;46.31
12213;BME280;6169;44.158;22.788;2023-04-25T22:39:56;100055.22;;;14.91;46.51
12213;BME280;6169;44.158;22.788;2023-04-25T22:44:59;100047.66;;;14.63;46.77
12213;BME280;6169;44.158;22.788;2023-04-25T22:50:03;100049.63;;;14.52;46.84
12213;BME280;6169;44.158;22.788;2023-04-25T22:55:07;100057.28;;;14.40;47.90
12213;BME280;6169;44.158;22.788;2023-04-25T23:00:11;100033.09;;;13.82;48.90
12213;BME280;6169;44.158;22.788;2023-04-25T23:05:20;100041.53;;;13.34;50.85
12213;BME280;6169;44.158;22.788;2023-04-25T23:10:24;100041.31;;;13.92;49.57
12213;BME280;6169;44.158;22.788;2023-04-25T23:15:26;100047.00;;;13.70;50.42
12213;BME280;6169;44.158;22.788;2023-04-25T23:20:31;100047.28;;;13.89;50.17
12213;BME280;6169;44.158;22.788;2023-04-25T23:25:36;100046.47;;;13.73;50.46
12213;BME280;6169;44.158;22.788;2023-04-25T23:30:39;100044.81;;;13.47;50.88
12213;BME280;6169;44.158;22.788;2023-04-25T23:35:42;100038.81;;;13.65;50.15
12213;BME280;6169;44.158;22.788;2023-04-25T23:40:46;100044.00;;;14.08;49.51
12213;BME280;6169;44.158;22.788;2023-04-25T23:45:48;100044.53;;;14.04;48.66
12213;BME280;6169;44.158;22.788;2023-04-25T23:50:53;100036.84;;;14.32;47.65
12213;BME280;6169;44.158;22.788;2023-04-25T23:55:55;100030.34;;;13.62;50.36
